AirNav   Pilot Hours Calculator
 
 1453 users online  

2CN2 Department of Water and Power Granada Hills Heliport
Los Angeles, California, USA

GOING TO LOS ANGELES?


FAA INFORMATION EFFECTIVE 22 APRIL 2021

Location

FAA Identifier: 2CN2
Lat/Long: 34-17-32.5000N 118-28-29.0100W
34-17.541667N 118-28.483500W
34.2923611,-118.4747250
(estimated)
Elevation: 1124 ft. / 343 m (estimated)
From city: 22 miles NW of LOS ANGELES, CA
Time zone: UTC -7 (UTC -8 during Standard Time)
Zip code: 91344

Heliport Operations

Heliport use: Private use. Permission required prior to landing
Activation date: 06/2007
Control tower: no
ARTCC: LOS ANGELES CENTER
FSS: HAWTHORNE FLIGHT SERVICE STATION
Attendance: UNATNDD
Wind indicator: lighted
Segmented circle: no
Lights: FOR PERI LGTS CALL 818-771-3138.

Heliport Communications

WX AWOS-3PT at WHP (4 nm SE): 132.1 (818-899-9820)
WX ASOS at VNY (5 nm S): PHONE 818-904-9213
WX ASOS at BUR (8 nm SE): PHONE 818-841-1384
WX ASOS at SMO (17 nm S): PHONE 310-392-6453

Nearby radio navigation aids

VOR radial/distance  VOR name  Freq  Var
VNYr356/4.2VAN NUYS VOR/DME113.1015E
SMOr342/17.0SANTA MONICA VOR/DME110.8015E
FIMr086/20.5FILLMORE VORTAC112.5015E
LAXr339/21.7LOS ANGELES VORTAC113.6015E
LHSr153/24.0LAKE HUGHES VORTAC114.3515E
PMDr210/28.8PALMDALE VORTAC114.5015E
VTUr055/30.4VENTURA VOR/DME108.2015E
CMAr066/31.1CAMARILLO VOR/DME115.8015E
GMNr132/36.2GORMAN VORTAC116.1016E
POMr276/36.5POMONA VORTAC110.4015E
SLIr311/37.0SEAL BEACH VORTAC115.7015E

Heliport Services

Runway Information

Helipad H1

Dimensions: 25 x 25 ft. / 8 x 8 m
Surface: concrete
Runway edge lights: PERI
Latitude: 34-17.541667N
Longitude: 118-28.483500W
Elevation: 1124.0 ft.
Traffic pattern: leftleft

Heliport Ownership and Management from official FAA records

Ownership: Privately-owned
Owner: LOS ANGELES DEPT OF WATER & POWER
111 N. HOPE ST - 13TH FLOOR
LOS ANGELES, CA 90012
Phone 818-771-3138
Manager: MAURIZIO AMATI
14401 SATICOY ST., BLDG. 6, 3RD FLOOR
VAN NUYS, CA 91405
Phone 818-771-3138
CHIEF PILOT "A" MAURIZIO AMATI.

Heliport Operational Statistics

Aircraft based on the field: 4
Helicopters: 4
    

Additional Remarks

FOR CD CTC LOS ANGELES ARTCC AT 661-575-2079.

Instrument Procedures

There are no published instrument procedures at 2CN2.

Some nearby airports with instrument procedures:

KWHP - Whiteman Airport (4 nm SE)
KVNY - Van Nuys Airport (5 nm S)
KBUR - Bob Hope Airport (8 nm SE)
KSMO - Santa Monica Municipal Airport (17 nm S)
KLAX - Los Angeles International Airport (21 nm S)
 
Loc | Ops | Rwys | IFR | FBO | Links
Com | Nav | Svcs | Stats | Notes
Area around 2CN2 (Department of Water and Power Granada Hills Heliport)
 
Road maps at: MapQuest Bing Google
 
Aerial photo
No photo
 
Sectional chart

 
Airport distance calculator
Flying to Department of Water and Power Granada Hills Heliport? Find the distance to fly.

From to 2CN2

Sunrise and sunset
Times for 05-May-2021
 Local
(UTC-7)
 Zulu
(UTC)
Morning civil twilight05:3412:34
Sunrise06:0113:01
Sunset19:4002:40
Evening civil twilight20:0703:07

Current date and time
Zulu (UTC)  05-May-2021 21:14:30
Local (UTC-7)  05-May-2021 14:14:30
 
METAR
KWHP 
4nm SE 
052055Z 00000KT 10SM SKC 29/07 A2996
KVNY 
5nm S 
052051Z 13008KT 10SM CLR 32/06 A2991 RMK AO2 SLP120 T03170061 57010
KBUR 
8nm SE 
052053Z 18008KT 10SM CLR 29/08 A2992 RMK AO2 SLP119 T02890083 56010 $
KSMO 
17nm S 
052051Z 24009KT 6SM HZ FEW007 FEW013 18/13 A2996 RMK AO2 SLP143 T01780133 58003
KCQT 
19nm SE 
052052Z AUTO 26006KT 8SM CLR 23/13 A2993 RMK AO2 SLP135 T02280133 55002
TAF
KVNY 
5nm S 
051744Z 0518/0618 VRB03KT P6SM SKC FM052000 14008KT P6SM SKC FM060300 VRB03KT P6SM SKC FM061100 VRB03KT 6SM BR BKN003 FM061500 VRB03KT P6SM SKC
KBUR 
8nm SE 
051744Z 0518/0618 VRB03KT P6SM SKC FM051900 17010KT P6SM SKC FM060300 14006KT P6SM SKC FM061000 VRB03KT 6SM BR BKN003 FM061500 VRB03KT P6SM SKC
KSMO 
17nm S 
051744Z 0518/0618 VRB03KT 5SM HZ SCT007 FM051900 23008KT P6SM SKC FM060300 VRB03KT 3SM BR OVC003 FM061700 24005KT 6SM BR SCT005
NOTAMs
Click for the latest NOTAMs
NOTAMs are issued by the DoD/FAA and will open in a separate window not controlled by AirNav.

 

 
 

Would you like to see your business listed on this page?

 If your business provides an interesting product or service to pilots, flight crews, aircraft, or users of the Department of Water and Power Granada Hills Heliport, you should consider listing it here.  To start the listing process, click on the button below
 
Add a business
 

Other Pages about Department of Water and Power Granada Hills Heliport

Update a link
 
Copyright © AirNav, LLC. All rights reserved. Privacy Policy  Contact